sensor_id;sensor_type;location;lat;lon;timestamp;pressure;altitude;pressure_sealevel;temperature;humidity
23261;BME280;11799;47.740;-3.390;2024-02-26T00:01:53;98917.88;;;8.29;100.00
23261;BME280;11799;47.740;-3.390;2024-02-26T00:04:18;98917.22;;;8.27;100.00
23261;BME280;11799;47.740;-3.390;2024-02-26T00:06:44;98916.75;;;8.32;100.00
23261;BME280;11799;47.740;-3.390;2024-02-26T00:09:10;98928.03;;;8.24;100.00
23261;BME280;11799;47.740;-3.390;2024-02-26T00:11:36;98929.22;;;8.29;100.00
23261;BME280;11799;47.740;-3.390;2024-02-26T00:14:02;98926.59;;;8.29;100.00
23261;BME280;11799;47.740;-3.390;2024-02-26T00:16:27;98940.03;;;8.26;100.00
23261;BME280;11799;47.740;-3.390;2024-02-26T00:18:53;98936.97;;;8.31;100.00
23261;BME280;11799;47.740;-3.390;2024-02-26T00:21:18;98941.97;;;8.34;100.00
23261;BME280;11799;47.740;-3.390;2024-02-26T00:23:44;98948.09;;;8.25;100.00
23261;BME280;11799;47.740;-3.390;2024-02-26T00:26:09;98945.16;;;8.28;100.00
23261;BME280;11799;47.740;-3.390;2024-02-26T00:28:36;98947.50;;;8.31;100.00
23261;BME280;11799;47.740;-3.390;2024-02-26T00:31:02;98946.13;;;8.27;100.00
23261;BME280;11799;47.740;-3.390;2024-02-26T00:33:28;98949.03;;;8.34;100.00
23261;BME280;11799;47.740;-3.390;2024-02-26T00:35:53;98958.28;;;8.38;100.00
23261;BME280;11799;47.740;-3.390;2024-02-26T00:38:19;98956.91;;;8.34;100.00
23261;BME280;11799;47.740;-3.390;2024-02-26T00:40:44;98958.47;;;8.26;100.00
23261;BME280;11799;47.740;-3.390;2024-02-26T00:43:10;98961.19;;;8.35;100.00
23261;BME280;11799;47.740;-3.390;2024-02-26T00:45:35;98964.81;;;8.34;100.00
23261;BME280;11799;47.740;-3.390;2024-02-26T00:48:01;98960.91;;;8.38;100.00
23261;BME280;11799;47.740;-3.390;2024-02-26T00:50:30;98956.00;;;8.43;100.00
23261;BME280;11799;47.740;-3.390;2024-02-26T00:52:56;98969.31;;;8.41;100.00
23261;BME280;11799;47.740;-3.390;2024-02-26T00:55:21;98968.50;;;8.41;100.00
23261;BME280;11799;47.740;-3.390;2024-02-26T00:57:47;98976.38;;;8.41;100.00
23261;BME280;11799;47.740;-3.390;2024-02-26T01:00:13;98971.72;;;8.35;100.00
23261;BME280;11799;47.740;-3.390;2024-02-26T01:02:38;98979.47;;;8.36;100.00
23261;BME280;11799;47.740;-3.390;2024-02-26T01:05:05;98981.81;;;8.29;100.00
23261;BME280;11799;47.740;-3.390;2024-02-26T01:07:31;98979.75;;;8.33;100.00
23261;BME280;11799;47.740;-3.390;2024-02-26T01:10:02;98989.97;;;8.36;100.00
23261;BME280;11799;47.740;-3.390;2024-02-26T01:12:28;98989.00;;;8.37;100.00
23261;BME280;11799;47.740;-3.390;2024-02-26T01:14:53;98991.66;;;8.27;100.00
23261;BME280;11799;47.740;-3.390;2024-02-26T01:17:19;99004.53;;;8.31;100.00
23261;BME280;11799;47.740;-3.390;2024-02-26T01:19:44;99000.50;;;8.36;100.00
23261;BME280;11799;47.740;-3.390;2024-02-26T01:22:10;99002.34;;;8.26;100.00
23261;BME280;11799;47.740;-3.390;2024-02-26T01:24:35;99010.06;;;8.27;100.00
23261;BME280;11799;47.740;-3.390;2024-02-26T01:27:01;99005.78;;;8.26;100.00
23261;BME280;11799;47.740;-3.390;2024-02-26T01:29:26;99009.94;;;8.29;100.00
23261;BME280;11799;47.740;-3.390;2024-02-26T01:31:52;99014.88;;;8.32;100.00
23261;BME280;11799;47.740;-3.390;2024-02-26T01:34:17;99014.47;;;8.37;100.00
23261;BME280;11799;47.740;-3.390;2024-02-26T01:36:43;99022.66;;;8.34;100.00
23261;BME280;11799;47.740;-3.390;2024-02-26T01:39:09;99025.47;;;8.22;100.00
23261;BME280;11799;47.740;-3.390;2024-02-26T01:41:41;99026.97;;;8.25;100.00
23261;BME280;11799;47.740;-3.390;2024-02-26T01:44:07;99036.91;;;8.31;100.00
23261;BME280;11799;47.740;-3.390;2024-02-26T01:46:34;99037.88;;;8.30;100.00
23261;BME280;11799;47.740;-3.390;2024-02-26T01:49:01;99049.22;;;8.31;100.00
23261;BME280;11799;47.740;-3.390;2024-02-26T01:51:28;99055.47;;;8.29;100.00
23261;BME280;11799;47.740;-3.390;2024-02-26T01:53:55;99056.03;;;8.33;100.00
23261;BME280;11799;47.740;-3.390;2024-02-26T01:56:21;99061.28;;;8.33;100.00
23261;BME280;11799;47.740;-3.390;2024-02-26T01:58:47;99055.88;;;8.35;100.00
23261;BME280;11799;47.740;-3.390;2024-02-26T02:01:15;99066.94;;;8.38;100.00
23261;BME280;11799;47.740;-3.390;2024-02-26T02:03:42;99071.22;;;8.39;100.00
23261;BME280;11799;47.740;-3.390;2024-02-26T02:06:08;99077.75;;;8.35;100.00
23261;BME280;11799;47.740;-3.390;2024-02-26T02:08:34;99080.22;;;8.37;100.00
23261;BME280;11799;47.740;-3.390;2024-02-26T02:11:00;99078.88;;;8.33;100.00
23261;BME280;11799;47.740;-3.390;2024-02-26T02:13:26;99089.63;;;8.39;100.00
23261;BME280;11799;47.740;-3.390;2024-02-26T02:15:52;99100.31;;;8.38;100.00
23261;BME280;11799;47.740;-3.390;2024-02-26T02:18:18;99093.53;;;8.35;100.00
23261;BME280;11799;47.740;-3.390;2024-02-26T02:20:44;99105.41;;;8.39;100.00
23261;BME280;11799;47.740;-3.390;2024-02-26T02:23:10;99102.94;;;8.38;100.00
23261;BME280;11799;47.740;-3.390;2024-02-26T02:25:35;99109.16;;;8.37;100.00
23261;BME280;11799;47.740;-3.390;2024-02-26T02:28:01;99110.97;;;8.36;100.00
23261;BME280;11799;47.740;-3.390;2024-02-26T02:30:29;99115.69;;;8.33;100.00
23261;BME280;11799;47.740;-3.390;2024-02-26T02:32:57;99121.91;;;8.32;100.00
23261;BME280;11799;47.740;-3.390;2024-02-26T02:35:26;99118.72;;;8.38;100.00
23261;BME280;11799;47.740;-3.390;2024-02-26T02:37:52;99122.31;;;8.37;100.00
23261;BME280;11799;47.740;-3.390;2024-02-26T02:40:18;99124.81;;;8.28;100.00
23261;BME280;11799;47.740;-3.390;2024-02-26T02:42:43;99128.13;;;8.31;100.00
23261;BME280;11799;47.740;-3.390;2024-02-26T02:45:09;99135.78;;;8.24;100.00
23261;BME280;11799;47.740;-3.390;2024-02-26T02:47:38;99138.94;;;8.27;100.00
23261;BME280;11799;47.740;-3.390;2024-02-26T02:50:04;99146.81;;;8.27;100.00
23261;BME280;11799;47.740;-3.390;2024-02-26T02:52:30;99153.88;;;8.27;100.00
23261;BME280;11799;47.740;-3.390;2024-02-26T02:54:56;99155.56;;;8.18;100.00
23261;BME280;11799;47.740;-3.390;2024-02-26T02:57:22;99153.50;;;8.22;100.00
23261;BME280;11799;47.740;-3.390;2024-02-26T02:59:47;99164.56;;;8.25;100.00
23261;BME280;11799;47.740;-3.390;2024-02-26T03:02:13;99166.34;;;8.25;100.00
23261;BME280;11799;47.740;-3.390;2024-02-26T03:04:38;99172.28;;;8.27;100.00
23261;BME280;11799;47.740;-3.390;2024-02-26T03:07:04;99180.03;;;8.28;100.00
23261;BME280;11799;47.740;-3.390;2024-02-26T03:09:30;99185.84;;;8.32;100.00
23261;BME280;11799;47.740;-3.390;2024-02-26T03:11:55;99194.84;;;8.29;100.00
23261;BME280;11799;47.740;-3.390;2024-02-26T03:14:21;99198.06;;;8.23;100.00
23261;BME280;11799;47.740;-3.390;2024-02-26T03:16:46;99200.94;;;8.30;100.00
23261;BME280;11799;47.740;-3.390;2024-02-26T03:19:15;99209.94;;;8.27;100.00
23261;BME280;11799;47.740;-3.390;2024-02-26T03:21:41;99221.84;;;8.32;100.00
23261;BME280;11799;47.740;-3.390;2024-02-26T03:24:07;99225.72;;;8.27;100.00
23261;BME280;11799;47.740;-3.390;2024-02-26T03:26:36;99219.50;;;8.28;100.00
23261;BME280;11799;47.740;-3.390;2024-02-26T03:29:02;99236.69;;;8.33;100.00
23261;BME280;11799;47.740;-3.390;2024-02-26T03:31:28;99243.59;;;8.34;100.00
23261;BME280;11799;47.740;-3.390;2024-02-26T03:33:54;99252.56;;;8.31;100.00
23261;BME280;11799;47.740;-3.390;2024-02-26T03:36:19;99275.97;;;8.24;100.00
23261;BME280;11799;47.740;-3.390;2024-02-26T03:38:47;99278.47;;;8.16;100.00
23261;BME280;11799;47.740;-3.390;2024-02-26T03:41:12;99280.13;;;8.27;100.00
23261;BME280;11799;47.740;-3.390;2024-02-26T03:43:38;99305.19;;;8.21;100.00
23261;BME280;11799;47.740;-3.390;2024-02-26T03:46:03;99303.38;;;8.22;100.00
23261;BME280;11799;47.740;-3.390;2024-02-26T03:48:29;99310.88;;;8.17;100.00
23261;BME280;11799;47.740;-3.390;2024-02-26T03:50:54;99321.53;;;8.15;100.00
23261;BME280;11799;47.740;-3.390;2024-02-26T03:53:20;99320.84;;;8.13;100.00
23261;BME280;11799;47.740;-3.390;2024-02-26T03:55:45;99331.22;;;8.15;100.00
23261;BME280;11799;47.740;-3.390;2024-02-26T03:58:12;99339.81;;;8.07;100.00
23261;BME280;11799;47.740;-3.390;2024-02-26T04:00:38;99341.47;;;8.08;100.00
23261;BME280;11799;47.740;-3.390;2024-02-26T04:03:03;99351.59;;;8.03;100.00
23261;BME280;11799;47.740;-3.390;2024-02-26T04:05:29;99357.41;;;7.97;100.00
23261;BME280;11799;47.740;-3.390;2024-02-26T04:07:55;99375.78;;;7.97;100.00
23261;BME280;11799;47.740;-3.390;2024-02-26T04:10:20;99381.19;;;7.95;100.00
23261;BME280;11799;47.740;-3.390;2024-02-26T04:12:46;99392.94;;;7.91;100.00
23261;BME280;11799;47.740;-3.390;2024-02-26T04:15:12;99396.13;;;7.85;100.00
23261;BME280;11799;47.740;-3.390;2024-02-26T04:17:37;99402.22;;;7.86;100.00
23261;BME280;11799;47.740;-3.390;2024-02-26T04:20:04;99410.50;;;7.81;100.00
23261;BME280;11799;47.740;-3.390;2024-02-26T04:22:30;99431.94;;;7.86;100.00
23261;BME280;11799;47.740;-3.390;2024-02-26T04:24:57;99432.50;;;7.80;100.00
23261;BME280;11799;47.740;-3.390;2024-02-26T04:27:22;99463.72;;;7.74;100.00
23261;BME280;11799;47.740;-3.390;2024-02-26T04:29:48;99472.31;;;7.76;100.00
23261;BME280;11799;47.740;-3.390;2024-02-26T04:32:13;99487.81;;;7.79;100.00
23261;BME280;11799;47.740;-3.390;2024-02-26T04:34:39;99493.91;;;7.79;100.00
23261;BME280;11799;47.740;-3.390;2024-02-26T04:37:05;99516.97;;;7.76;100.00
23261;BME280;11799;47.740;-3.390;2024-02-26T04:39:30;99530.66;;;7.70;100.00
23261;BME280;11799;47.740;-3.390;2024-02-26T04:41:56;99537.44;;;7.72;100.00
23261;BME280;11799;47.740;-3.390;2024-02-26T04:44:21;99554.69;;;7.65;100.00
23261;BME280;11799;47.740;-3.390;2024-02-26T04:46:47;99550.13;;;7.67;100.00
23261;BME280;11799;47.740;-3.390;2024-02-26T04:49:12;99565.34;;;7.63;100.00
23261;BME280;11799;47.740;-3.390;2024-02-26T04:51:38;99572.38;;;7.63;100.00
23261;BME280;11799;47.740;-3.390;2024-02-26T04:54:03;99601.50;;;7.50;100.00
23261;BME280;11799;47.740;-3.390;2024-02-26T04:56:29;99616.44;;;7.50;100.00
23261;BME280;11799;47.740;-3.390;2024-02-26T04:58:54;99641.06;;;7.49;100.00
23261;BME280;11799;47.740;-3.390;2024-02-26T05:01:20;99638.69;;;7.46;100.00
23261;BME280;11799;47.740;-3.390;2024-02-26T05:03:46;99669.38;;;7.45;100.00
23261;BME280;11799;47.740;-3.390;2024-02-26T05:06:11;99691.09;;;7.47;100.00
23261;BME280;11799;47.740;-3.390;2024-02-26T05:08:37;99708.66;;;7.47;100.00
23261;BME280;11799;47.740;-3.390;2024-02-26T05:11:04;99719.41;;;7.44;100.00
23261;BME280;11799;47.740;-3.390;2024-02-26T05:13:30;99746.75;;;7.41;100.00
23261;BME280;11799;47.740;-3.390;2024-02-26T05:15:56;99755.59;;;7.40;100.00
23261;BME280;11799;47.740;-3.390;2024-02-26T05:18:24;99787.09;;;7.40;100.00
23261;BME280;11799;47.740;-3.390;2024-02-26T05:20:50;99804.31;;;7.33;100.00
23261;BME280;11799;47.740;-3.390;2024-02-26T05:23:15;99818.53;;;7.31;100.00
23261;BME280;11799;47.740;-3.390;2024-02-26T05:25:41;99834.75;;;7.36;100.00
23261;BME280;11799;47.740;-3.390;2024-02-26T05:28:07;99840.72;;;7.38;100.00
23261;BME280;11799;47.740;-3.390;2024-02-26T05:30:32;99853.50;;;7.31;100.00
23261;BME280;11799;47.740;-3.390;2024-02-26T05:32:58;99844.78;;;7.31;100.00
23261;BME280;11799;47.740;-3.390;2024-02-26T05:35:25;99872.00;;;7.29;100.00
23261;BME280;11799;47.740;-3.390;2024-02-26T05:37:51;99884.66;;;7.24;100.00
23261;BME280;11799;47.740;-3.390;2024-02-26T05:40:16;99886.47;;;7.24;100.00
23261;BME280;11799;47.740;-3.390;2024-02-26T05:42:42;99889.09;;;7.24;100.00
23261;BME280;11799;47.740;-3.390;2024-02-26T05:45:10;99909.00;;;7.15;100.00
23261;BME280;11799;47.740;-3.390;2024-02-26T05:47:36;99902.34;;;7.11;100.00
23261;BME280;11799;47.740;-3.390;2024-02-26T05:50:02;99911.16;;;7.10;100.00
23261;BME280;11799;47.740;-3.390;2024-02-26T05:52:27;99920.47;;;7.14;100.00
23261;BME280;11799;47.740;-3.390;2024-02-26T05:54:54;99936.56;;;7.10;100.00
23261;BME280;11799;47.740;-3.390;2024-02-26T05:57:20;99942.06;;;7.07;100.00
23261;BME280;11799;47.740;-3.390;2024-02-26T05:59:45;99956.03;;;7.07;100.00
23261;BME280;11799;47.740;-3.390;2024-02-26T06:02:11;99973.69;;;7.05;100.00
23261;BME280;11799;47.740;-3.390;2024-02-26T06:04:37;99972.50;;;7.09;100.00
23261;BME280;11799;47.740;-3.390;2024-02-26T06:07:02;99972.63;;;7.08;100.00
23261;BME280;11799;47.740;-3.390;2024-02-26T06:09:28;99993.13;;;7.03;100.00
23261;BME280;11799;47.740;-3.390;2024-02-26T06:11:53;100003.53;;;7.04;100.00
23261;BME280;11799;47.740;-3.390;2024-02-26T06:14:19;100007.59;;;7.08;100.00
23261;BME280;11799;47.740;-3.390;2024-02-26T06:16:46;100015.81;;;7.04;100.00
23261;BME280;11799;47.740;-3.390;2024-02-26T06:19:11;100013.19;;;7.04;100.00
23261;BME280;11799;47.740;-3.390;2024-02-26T06:21:37;100032.41;;;7.04;100.00
23261;BME280;11799;47.740;-3.390;2024-02-26T06:24:02;100041.22;;;7.03;100.00
23261;BME280;11799;47.740;-3.390;2024-02-26T06:26:28;100041.94;;;7.05;100.00
23261;BME280;11799;47.740;-3.390;2024-02-26T06:28:55;100048.25;;;7.03;100.00
23261;BME280;11799;47.740;-3.390;2024-02-26T06:31:21;100061.03;;;7.07;100.00
23261;BME280;11799;47.740;-3.390;2024-02-26T06:33:48;100057.34;;;7.10;100.00
23261;BME280;11799;47.740;-3.390;2024-02-26T06:36:15;100068.53;;;7.01;100.00
23261;BME280;11799;47.740;-3.390;2024-02-26T06:38:41;100081.91;;;6.97;100.00
23261;BME280;11799;47.740;-3.390;2024-02-26T06:41:06;100100.66;;;7.04;100.00
23261;BME280;11799;47.740;-3.390;2024-02-26T06:43:32;100101.72;;;7.02;100.00
23261;BME280;11799;47.740;-3.390;2024-02-26T06:45:58;100110.44;;;7.02;100.00
23261;BME280;11799;47.740;-3.390;2024-02-26T06:48:24;100113.06;;;7.02;100.00
23261;BME280;11799;47.740;-3.390;2024-02-26T06:50:50;100118.41;;;7.01;100.00
23261;BME280;11799;47.740;-3.390;2024-02-26T06:53:15;100124.28;;;7.04;100.00
23261;BME280;11799;47.740;-3.390;2024-02-26T06:55:42;100128.91;;;7.01;100.00
23261;BME280;11799;47.740;-3.390;2024-02-26T06:58:08;100132.38;;;7.01;100.00
23261;BME280;11799;47.740;-3.390;2024-02-26T07:00:33;100150.75;;;7.01;100.00
23261;BME280;11799;47.740;-3.390;2024-02-26T07:02:59;100151.47;;;7.03;100.00
23261;BME280;11799;47.740;-3.390;2024-02-26T07:05:24;100162.00;;;7.03;100.00
23261;BME280;11799;47.740;-3.390;2024-02-26T07:07:50;100149.81;;;7.02;100.00
23261;BME280;11799;47.740;-3.390;2024-02-26T07:10:16;100171.75;;;7.01;100.00
23261;BME280;11799;47.740;-3.390;2024-02-26T07:12:42;100183.31;;;6.99;100.00
23261;BME280;11799;47.740;-3.390;2024-02-26T07:15:09;100170.59;;;7.05;100.00
23261;BME280;11799;47.740;-3.390;2024-02-26T07:17:35;100190.03;;;7.03;100.00
23261;BME280;11799;47.740;-3.390;2024-02-26T07:20:00;100193.50;;;7.03;100.00
23261;BME280;11799;47.740;-3.390;2024-02-26T07:22:26;100182.16;;;7.03;100.00
23261;BME280;11799;47.740;-3.390;2024-02-26T07:24:52;100210.31;;;7.01;100.00
23261;BME280;11799;47.740;-3.390;2024-02-26T07:27:20;100223.44;;;7.01;100.00
23261;BME280;11799;47.740;-3.390;2024-02-26T07:29:46;100226.06;;;7.01;100.00
23261;BME280;11799;47.740;-3.390;2024-02-26T07:32:12;100235.50;;;7.03;100.00
23261;BME280;11799;47.740;-3.390;2024-02-26T07:34:37;100239.91;;;7.03;100.00
23261;BME280;11799;47.740;-3.390;2024-02-26T07:37:07;100267.63;;;7.07;100.00
23261;BME280;11799;47.740;-3.390;2024-02-26T07:39:33;100261.03;;;7.01;100.00
23261;BME280;11799;47.740;-3.390;2024-02-26T07:41:59;100279.28;;;7.03;100.00
23261;BME280;11799;47.740;-3.390;2024-02-26T07:44:24;100263.66;;;7.01;100.00
23261;BME280;11799;47.740;-3.390;2024-02-26T07:46:50;100293.47;;;7.00;100.00
23261;BME280;11799;47.740;-3.390;2024-02-26T07:49:15;100308.16;;;7.03;100.00
23261;BME280;11799;47.740;-3.390;2024-02-26T07:51:41;100312.59;;;7.02;100.00
23261;BME280;11799;47.740;-3.390;2024-02-26T07:54:07;100330.13;;;7.02;100.00
23261;BME280;11799;47.740;-3.390;2024-02-26T07:56:32;100346.59;;;7.04;100.00
23261;BME280;11799;47.740;-3.390;2024-02-26T07:58:58;100350.81;;;7.06;100.00
23261;BME280;11799;47.740;-3.390;2024-02-26T08:01:24;100362.47;;;7.02;100.00
23261;BME280;11799;47.740;-3.390;2024-02-26T08:03:51;100363.19;;;7.04;100.00
23261;BME280;11799;47.740;-3.390;2024-02-26T08:06:17;100388.50;;;7.05;100.00
23261;BME280;11799;47.740;-3.390;2024-02-26T08:08:42;100384.94;;;7.06;100.00
23261;BME280;11799;47.740;-3.390;2024-02-26T08:11:09;100392.69;;;7.08;100.00
23261;BME280;11799;47.740;-3.390;2024-02-26T08:13:34;100410.47;;;7.04;100.00
23261;BME280;11799;47.740;-3.390;2024-02-26T08:16:01;100427.03;;;7.05;100.00
23261;BME280;11799;47.740;-3.390;2024-02-26T08:18:26;100432.28;;;7.05;100.00
23261;BME280;11799;47.740;-3.390;2024-02-26T08:20:52;100423.47;;;7.06;100.00
23261;BME280;11799;47.740;-3.390;2024-02-26T08:23:18;100435.44;;;7.10;100.00
23261;BME280;11799;47.740;-3.390;2024-02-26T08:25:43;100434.19;;;7.03;100.00
23261;BME280;11799;47.740;-3.390;2024-02-26T08:28:09;100444.69;;;7.03;100.00
23261;BME280;11799;47.740;-3.390;2024-02-26T08:30:38;100457.72;;;7.04;100.00
23261;BME280;11799;47.740;-3.390;2024-02-26T08:33:04;100461.91;;;7.07;100.00
23261;BME280;11799;47.740;-3.390;2024-02-26T08:35:29;100476.09;;;7.04;100.00
23261;BME280;11799;47.740;-3.390;2024-02-26T08:37:55;100471.38;;;7.09;100.00
23261;BME280;11799;47.740;-3.390;2024-02-26T08:40:20;100500.34;;;7.08;100.00
23261;BME280;11799;47.740;-3.390;2024-02-26T08:42:46;100500.56;;;7.05;100.00
23261;BME280;11799;47.740;-3.390;2024-02-26T08:45:11;100509.28;;;7.05;100.00
23261;BME280;11799;47.740;-3.390;2024-02-26T08:47:38;100518.94;;;7.05;100.00
23261;BME280;11799;47.740;-3.390;2024-02-26T08:50:04;100535.53;;;7.05;100.00
23261;BME280;11799;47.740;-3.390;2024-02-26T08:52:30;100546.56;;;7.10;100.00
23261;BME280;11799;47.740;-3.390;2024-02-26T08:54:56;100550.88;;;7.11;100.00
23261;BME280;11799;47.740;-3.390;2024-02-26T08:57:22;100549.94;;;7.12;100.00
23261;BME280;11799;47.740;-3.390;2024-02-26T08:59:47;100569.25;;;7.11;100.00
23261;BME280;11799;47.740;-3.390;2024-02-26T09:02:13;100564.00;;;7.11;100.00
23261;BME280;11799;47.740;-3.390;2024-02-26T09:04:38;100587.44;;;7.14;100.00
23261;BME280;11799;47.740;-3.390;2024-02-26T09:07:04;100591.66;;;7.17;100.00
23261;BME280;11799;47.740;-3.390;2024-02-26T09:09:30;100604.78;;;7.17;100.00
23261;BME280;11799;47.740;-3.390;2024-02-26T09:11:55;100602.03;;;7.18;100.00
23261;BME280;11799;47.740;-3.390;2024-02-26T09:14:21;100624.09;;;7.16;100.00
23261;BME280;11799;47.740;-3.390;2024-02-26T09:16:47;100615.28;;;7.17;100.00
23261;BME280;11799;47.740;-3.390;2024-02-26T09:19:16;100627.16;;;7.22;100.00
23261;BME280;11799;47.740;-3.390;2024-02-26T09:21:45;100641.97;;;7.23;100.00
23261;BME280;11799;47.740;-3.390;2024-02-26T09:24:12;100659.53;;;7.23;100.00
23261;BME280;11799;47.740;-3.390;2024-02-26T09:26:38;100667.19;;;7.26;100.00
23261;BME280;11799;47.740;-3.390;2024-02-26T09:29:03;100692.63;;;7.25;100.00
23261;BME280;11799;47.740;-3.390;2024-02-26T09:31:33;100694.94;;;7.30;100.00
23261;BME280;11799;47.740;-3.390;2024-02-26T09:33:59;100689.69;;;7.30;100.00
23261;BME280;11799;47.740;-3.390;2024-02-26T09:36:25;100700.00;;;7.33;100.00
23261;BME280;11799;47.740;-3.390;2024-02-26T09:38:51;100697.47;;;7.32;100.00
23261;BME280;11799;47.740;-3.390;2024-02-26T09:41:16;100715.97;;;7.30;100.00
23261;BME280;11799;47.740;-3.390;2024-02-26T09:43:44;100729.84;;;7.32;100.00
23261;BME280;11799;47.740;-3.390;2024-02-26T09:46:11;100749.91;;;7.33;100.00
23261;BME280;11799;47.740;-3.390;2024-02-26T09:48:37;100759.19;;;7.39;100.00
23261;BME280;11799;47.740;-3.390;2024-02-26T09:51:04;100748.47;;;7.42;100.00
23261;BME280;11799;47.740;-3.390;2024-02-26T09:53:30;100763.19;;;7.44;100.00
23261;BME280;11799;47.740;-3.390;2024-02-26T09:56:06;100770.44;;;7.41;100.00
23261;BME280;11799;47.740;-3.390;2024-02-26T09:58:33;100782.53;;;7.43;100.00
23261;BME280;11799;47.740;-3.390;2024-02-26T10:01:00;100763.38;;;7.41;100.00
23261;BME280;11799;47.740;-3.390;2024-02-26T10:03:39;100771.47;;;7.38;100.00
23261;BME280;11799;47.740;-3.390;2024-02-26T10:06:09;100763.88;;;7.34;100.00
23261;BME280;11799;47.740;-3.390;2024-02-26T10:08:35;100795.13;;;7.38;100.00
23261;BME280;11799;47.740;-3.390;2024-02-26T10:11:04;100799.53;;;7.38;100.00
23261;BME280;11799;47.740;-3.390;2024-02-26T10:13:30;100823.81;;;7.41;100.00
23261;BME280;11799;47.740;-3.390;2024-02-26T10:15:55;100834.22;;;7.43;100.00
23261;BME280;11799;47.740;-3.390;2024-02-26T10:18:22;100845.28;;;7.48;100.00
23261;BME280;11799;47.740;-3.390;2024-02-26T10:20:59;100838.25;;;7.48;100.00
23261;BME280;11799;47.740;-3.390;2024-02-26T10:23:26;100875.03;;;7.48;100.00
23261;BME280;11799;47.740;-3.390;2024-02-26T10:25:55;100877.66;;;7.48;100.00
23261;BME280;11799;47.740;-3.390;2024-02-26T10:28:22;100876.19;;;7.44;100.00
23261;BME280;11799;47.740;-3.390;2024-02-26T10:30:48;100883.22;;;7.44;100.00
23261;BME280;11799;47.740;-3.390;2024-02-26T10:33:13;100889.97;;;7.48;100.00
23261;BME280;11799;47.740;-3.390;2024-02-26T10:35:40;100892.97;;;7.42;100.00
23261;BME280;11799;47.740;-3.390;2024-02-26T10:38:10;100889.97;;;7.48;100.00
23261;BME280;11799;47.740;-3.390;2024-02-26T10:40:35;100914.34;;;7.50;100.00
23261;BME280;11799;47.740;-3.390;2024-02-26T10:43:01;100931.50;;;7.55;100.00
23261;BME280;11799;47.740;-3.390;2024-02-26T10:45:27;100931.41;;;7.57;100.00
23261;BME280;11799;47.740;-3.390;2024-02-26T10:47:53;100924.16;;;7.60;100.00
23261;BME280;11799;47.740;-3.390;2024-02-26T10:50:19;100922.28;;;7.62;100.00
23261;BME280;11799;47.740;-3.390;2024-02-26T10:52:45;100957.19;;;7.65;100.00
23261;BME280;11799;47.740;-3.390;2024-02-26T10:55:15;100966.19;;;7.75;100.00
23261;BME280;11799;47.740;-3.390;2024-02-26T10:57:44;100966.53;;;7.83;100.00
23261;BME280;11799;47.740;-3.390;2024-02-26T11:00:14;100952.91;;;7.90;100.00
23261;BME280;11799;47.740;-3.390;2024-02-26T11:02:40;100983.72;;;7.88;100.00
23261;BME280;11799;47.740;-3.390;2024-02-26T11:05:07;100968.78;;;7.89;100.00
23261;BME280;11799;47.740;-3.390;2024-02-26T11:07:36;101003.06;;;7.87;100.00
23261;BME280;11799;47.740;-3.390;2024-02-26T11:10:03;100988.22;;;7.86;100.00
23261;BME280;11799;47.740;-3.390;2024-02-26T11:12:30;101017.25;;;7.85;100.00
23261;BME280;11799;47.740;-3.390;2024-02-26T11:14:57;101018.75;;;7.75;100.00
23261;BME280;11799;47.740;-3.390;2024-02-26T11:17:27;101018.00;;;7.73;100.00
23261;BME280;11799;47.740;-3.390;2024-02-26T11:19:55;101032.00;;;7.73;100.00
23261;BME280;11799;47.740;-3.390;2024-02-26T11:22:22;101047.41;;;7.79;100.00
23261;BME280;11799;47.740;-3.390;2024-02-26T11:24:48;101049.47;;;7.74;100.00
23261;BME280;11799;47.740;-3.390;2024-02-26T11:27:16;101063.00;;;7.68;100.00
23261;BME280;11799;47.740;-3.390;2024-02-26T11:29:51;101067.13;;;7.72;100.00
23261;BME280;11799;47.740;-3.390;2024-02-26T11:32:17;101080.91;;;7.61;100.00
23261;BME280;11799;47.740;-3.390;2024-02-26T11:34:43;101112.56;;;7.60;100.00
23261;BME280;11799;47.740;-3.390;2024-02-26T11:37:16;101117.06;;;7.58;100.00
23261;BME280;11799;47.740;-3.390;2024-02-26T11:39:43;101109.34;;;7.55;100.00
23261;BME280;11799;47.740;-3.390;2024-02-26T11:42:14;101120.91;;;7.52;100.00
23261;BME280;11799;47.740;-3.390;2024-02-26T11:44:40;101154.13;;;7.53;100.00
23261;BME280;11799;47.740;-3.390;2024-02-26T11:47:33;101146.53;;;7.49;100.00
23261;BME280;11799;47.740;-3.390;2024-02-26T11:50:35;101156.22;;;7.48;100.00
23261;BME280;11799;47.740;-3.390;2024-02-26T11:58:42;101187.75;;;7.48;100.00
23261;BME280;11799;47.740;-3.390;2024-02-26T12:04:04;101199.38;;;7.44;100.00
23261;BME280;11799;47.740;-3.390;2024-02-26T12:06:29;101200.88;;;7.48;100.00
23261;BME280;11799;47.740;-3.390;2024-02-26T12:08:56;101208.56;;;7.51;100.00
23261;BME280;11799;47.740;-3.390;2024-02-26T12:11:21;101206.69;;;7.53;100.00
23261;BME280;11799;47.740;-3.390;2024-02-26T12:13:47;101232.22;;;7.51;100.00
23261;BME280;11799;47.740;-3.390;2024-02-26T12:16:35;101223.31;;;7.54;100.00
23261;BME280;11799;47.740;-3.390;2024-02-26T12:19:06;101212.78;;;7.54;100.00
23261;BME280;11799;47.740;-3.390;2024-02-26T12:21:36;101230.53;;;7.50;100.00
23261;BME280;11799;47.740;-3.390;2024-02-26T12:24:15;101241.50;;;7.43;100.00
23261;BME280;11799;47.740;-3.390;2024-02-26T12:26:43;101262.09;;;7.50;100.00
23261;BME280;11799;47.740;-3.390;2024-02-26T12:29:09;101254.38;;;7.47;100.00
23261;BME280;11799;47.740;-3.390;2024-02-26T12:31:37;101244.72;;;7.48;100.00
23261;BME280;11799;47.740;-3.390;2024-02-26T12:34:04;101265.06;;;7.44;100.00
23261;BME280;11799;47.740;-3.390;2024-02-26T12:36:30;101258.63;;;7.50;100.00
23261;BME280;11799;47.740;-3.390;2024-02-26T12:38:56;101265.06;;;7.44;100.00
23261;BME280;11799;47.740;-3.390;2024-02-26T12:41:22;101253.63;;;7.45;100.00
23261;BME280;11799;47.740;-3.390;2024-02-26T12:43:48;101279.72;;;7.48;100.00
23261;BME280;11799;47.740;-3.390;2024-02-26T12:46:15;101282.44;;;7.47;100.00
23261;BME280;11799;47.740;-3.390;2024-02-26T12:48:44;101284.56;;;7.40;100.00
23261;BME280;11799;47.740;-3.390;2024-02-26T12:51:12;101287.19;;;7.40;100.00